sensor_id;sensor_type;location;lat;lon;timestamp;pressure;altitude;pressure_sealevel;temperature;humidity
18755;BME280;35061;47.664;9.166;2023-07-13T00:00:39;101616.66;;;18.90;98.15
18755;BME280;35061;47.664;9.166;2023-07-13T00:03:08;101607.71;;;18.93;98.24
18755;BME280;35061;47.664;9.166;2023-07-13T00:05:36;101614.87;;;18.87;97.36
18755;BME280;35061;47.664;9.166;2023-07-13T00:08:04;101627.23;;;18.93;97.52
18755;BME280;35061;47.664;9.166;2023-07-13T00:10:32;101630.66;;;18.91;96.83
18755;BME280;35061;47.664;9.166;2023-07-13T00:13:00;101627.79;;;18.86;96.38
18755;BME280;35061;47.664;9.166;2023-07-13T00:15:29;101628.27;;;18.90;96.63
18755;BME280;35061;47.664;9.166;2023-07-13T00:17:59;101627.72;;;19.08;95.91
18755;BME280;35061;47.664;9.166;2023-07-13T00:20:28;101623.99;;;19.14;93.63
18755;BME280;35061;47.664;9.166;2023-07-13T00:22:57;101616.60;;;19.18;94.11
18755;BME280;35061;47.664;9.166;2023-07-13T00:25:25;101628.41;;;19.32;92.72
18755;BME280;35061;47.664;9.166;2023-07-13T00:27:55;101615.49;;;19.27;93.52
18755;BME280;35061;47.664;9.166;2023-07-13T00:30:26;101616.57;;;19.24;91.88
18755;BME280;35061;47.664;9.166;2023-07-13T00:32:54;101618.14;;;19.25;92.51
18755;BME280;35061;47.664;9.166;2023-07-13T00:35:41;101623.70;;;19.23;92.81
18755;BME280;35061;47.664;9.166;2023-07-13T00:38:11;101629.75;;;19.25;92.74
18755;BME280;35061;47.664;9.166;2023-07-13T00:40:40;101626.28;;;19.27;92.36
18755;BME280;35061;47.664;9.166;2023-07-13T00:43:17;101617.84;;;19.29;92.18
18755;BME280;35061;47.664;9.166;2023-07-13T00:48:21;101619.71;;;19.26;93.04
18755;BME280;35061;47.664;9.166;2023-07-13T00:50:52;101627.30;;;19.35;92.74
18755;BME280;35061;47.664;9.166;2023-07-13T00:53:21;101628.44;;;19.26;92.84
18755;BME280;35061;47.664;9.166;2023-07-13T00:55:50;101635.27;;;19.29;93.53
18755;BME280;35061;47.664;9.166;2023-07-13T00:58:19;101627.88;;;19.28;93.06
18755;BME280;35061;47.664;9.166;2023-07-13T01:00:48;101627.36;;;19.23;93.75
18755;BME280;35061;47.664;9.166;2023-07-13T01:03:16;101637.43;;;19.17;94.18
18755;BME280;35061;47.664;9.166;2023-07-13T01:05:47;101635.63;;;19.14;94.54
18755;BME280;35061;47.664;9.166;2023-07-13T01:08:16;101622.09;;;19.22;94.98
18755;BME280;35061;47.664;9.166;2023-07-13T01:10:54;101633.37;;;19.37;95.34
18755;BME280;35061;47.664;9.166;2023-07-13T01:13:23;101639.98;;;19.37;95.35
18755;BME280;35061;47.664;9.166;2023-07-13T01:15:52;101644.76;;;19.29;95.54
18755;BME280;35061;47.664;9.166;2023-07-13T01:18:25;101644.04;;;19.23;95.36
18755;BME280;35061;47.664;9.166;2023-07-13T01:21:02;101640.34;;;19.17;95.42
18755;BME280;35061;47.664;9.166;2023-07-13T01:23:31;101642.99;;;19.15;96.23
18755;BME280;35061;47.664;9.166;2023-07-13T01:26:00;101652.73;;;19.23;95.20
18755;BME280;35061;47.664;9.166;2023-07-13T01:28:28;101656.70;;;19.20;95.08
18755;BME280;35061;47.664;9.166;2023-07-13T01:30:58;101657.77;;;19.17;94.93
18755;BME280;35061;47.664;9.166;2023-07-13T01:33:27;101658.03;;;19.13;95.07
18755;BME280;35061;47.664;9.166;2023-07-13T01:35:55;101652.51;;;19.09;94.88
18755;BME280;35061;47.664;9.166;2023-07-13T01:38:25;101645.41;;;19.05;94.86
18755;BME280;35061;47.664;9.166;2023-07-13T01:40:54;101633.31;;;19.01;94.99
18755;BME280;35061;47.664;9.166;2023-07-13T01:43:22;101627.75;;;18.97;95.14
18755;BME280;35061;47.664;9.166;2023-07-13T01:45:50;101624.09;;;18.91;95.28
18755;BME280;35061;47.664;9.166;2023-07-13T01:48:18;101616.66;;;18.90;95.46
18755;BME280;35061;47.664;9.166;2023-07-13T01:50:47;101613.79;;;18.84;95.72
18755;BME280;35061;47.664;9.166;2023-07-13T01:53:15;101601.69;;;18.80;96.06
18755;BME280;35061;47.664;9.166;2023-07-13T01:55:43;101607.48;;;18.86;96.22
18755;BME280;35061;47.664;9.166;2023-07-13T01:58:11;101603.78;;;18.91;96.40
18755;BME280;35061;47.664;9.166;2023-07-13T02:00:39;101599.53;;;18.92;95.61
18755;BME280;35061;47.664;9.166;2023-07-13T02:03:07;101606.66;;;18.85;95.46
18755;BME280;35061;47.664;9.166;2023-07-13T02:05:35;101610.91;;;18.84;95.80
18755;BME280;35061;47.664;9.166;2023-07-13T02:08:04;101615.69;;;18.81;96.09
18755;BME280;35061;47.664;9.166;2023-07-13T02:10:32;101620.40;;;18.85;96.14
18755;BME280;35061;47.664;9.166;2023-07-13T02:13:00;101617.26;;;18.82;96.31
18755;BME280;35061;47.664;9.166;2023-07-13T02:15:28;101620.43;;;18.79;96.70
18755;BME280;35061;47.664;9.166;2023-07-13T02:17:56;101622.03;;;18.74;96.77
18755;BME280;35061;47.664;9.166;2023-07-13T02:20:25;101623.11;;;18.71;96.75
18755;BME280;35061;47.664;9.166;2023-07-13T02:22:54;101620.98;;;18.66;96.80
18755;BME280;35061;47.664;9.166;2023-07-13T02:25:22;101622.09;;;18.57;97.04
18755;BME280;35061;47.664;9.166;2023-07-13T02:27:50;101614.18;;;18.52;97.04
18755;BME280;35061;47.664;9.166;2023-07-13T02:30:18;101625.53;;;18.44;97.48
18755;BME280;35061;47.664;9.166;2023-07-13T02:32:46;101638.97;;;18.41;97.80
18755;BME280;35061;47.664;9.166;2023-07-13T02:35:14;101634.75;;;18.37;98.50
18755;BME280;35061;47.664;9.166;2023-07-13T02:37:42;101640.05;;;18.33;98.96
18755;BME280;35061;47.664;9.166;2023-07-13T02:40:10;101643.22;;;18.35;99.17
18755;BME280;35061;47.664;9.166;2023-07-13T02:42:39;101645.09;;;18.32;99.74
18755;BME280;35061;47.664;9.166;2023-07-13T02:45:08;101648.75;;;18.33;100.00
18755;BME280;35061;47.664;9.166;2023-07-13T02:47:36;101645.34;;;18.29;100.00
18755;BME280;35061;47.664;9.166;2023-07-13T02:50:05;101634.78;;;18.31;100.00
18755;BME280;35061;47.664;9.166;2023-07-13T02:52:33;101645.61;;;18.31;100.00
18755;BME280;35061;47.664;9.166;2023-07-13T02:55:01;101640.31;;;18.29;100.00
18755;BME280;35061;47.664;9.166;2023-07-13T02:57:29;101638.74;;;18.34;100.00
18755;BME280;35061;47.664;9.166;2023-07-13T02:59:58;101640.57;;;18.31;100.00
18755;BME280;35061;47.664;9.166;2023-07-13T03:02:27;101642.96;;;18.27;100.00
18755;BME280;35061;47.664;9.166;2023-07-13T03:04:56;101639.55;;;18.29;100.00
18755;BME280;35061;47.664;9.166;2023-07-13T03:07:24;101641.13;;;18.30;100.00
18755;BME280;35061;47.664;9.166;2023-07-13T03:09:57;101640.31;;;18.35;100.00
18755;BME280;35061;47.664;9.166;2023-07-13T03:12:25;101641.09;;;18.41;100.00
18755;BME280;35061;47.664;9.166;2023-07-13T03:14:53;101640.31;;;18.40;100.00
18755;BME280;35061;47.664;9.166;2023-07-13T03:17:21;101638.97;;;18.41;100.00
18755;BME280;35061;47.664;9.166;2023-07-13T03:19:50;101638.45;;;18.43;100.00
18755;BME280;35061;47.664;9.166;2023-07-13T03:22:18;101645.54;;;18.53;100.00
18755;BME280;35061;47.664;9.166;2023-07-13T03:24:47;101645.02;;;18.55;99.99
18755;BME280;35061;47.664;9.166;2023-07-13T03:27:17;101645.80;;;18.55;100.00
18755;BME280;35061;47.664;9.166;2023-07-13T03:29:45;101651.33;;;18.59;99.94
18755;BME280;35061;47.664;9.166;2023-07-13T03:32:13;101653.98;;;18.57;99.44
18755;BME280;35061;47.664;9.166;2023-07-13T03:34:41;101655.05;;;18.60;99.83
18755;BME280;35061;47.664;9.166;2023-07-13T03:37:09;101650.55;;;18.70;99.60
18755;BME280;35061;47.664;9.166;2023-07-13T03:39:36;101653.69;;;18.72;98.79
18755;BME280;35061;47.664;9.166;2023-07-13T03:42:05;101657.64;;;18.75;99.14
18755;BME280;35061;47.664;9.166;2023-07-13T03:44:33;101668.66;;;18.82;98.84
18755;BME280;35061;47.664;9.166;2023-07-13T03:47:01;101661.30;;;18.81;98.80
18755;BME280;35061;47.664;9.166;2023-07-13T03:49:29;101662.91;;;18.76;98.97
18755;BME280;35061;47.664;9.166;2023-07-13T03:51:57;101670.03;;;18.75;99.30
18755;BME280;35061;47.664;9.166;2023-07-13T03:54:25;101663.69;;;18.82;99.92
18755;BME280;35061;47.664;9.166;2023-07-13T03:56:53;101675.53;;;18.90;99.58
18755;BME280;35061;47.664;9.166;2023-07-13T03:59:21;101662.32;;;18.89;98.68
18755;BME280;35061;47.664;9.166;2023-07-13T04:01:49;101653.65;;;18.83;98.87
18755;BME280;35061;47.664;9.166;2023-07-13T04:04:17;101660.26;;;18.78;98.77
18755;BME280;35061;47.664;9.166;2023-07-13T04:06:45;101655.74;;;18.83;99.41
18755;BME280;35061;47.664;9.166;2023-07-13T04:09:13;101666.80;;;18.96;98.51
18755;BME280;35061;47.664;9.166;2023-07-13T04:11:41;101659.67;;;18.97;98.58
18755;BME280;35061;47.664;9.166;2023-07-13T04:14:09;101664.41;;;18.94;98.64
18755;BME280;35061;47.664;9.166;2023-07-13T04:16:37;101666.27;;;18.92;98.26
18755;BME280;35061;47.664;9.166;2023-07-13T04:19:05;101665.75;;;18.88;98.42
18755;BME280;35061;47.664;9.166;2023-07-13T04:21:33;101669.48;;;18.82;98.55
18755;BME280;35061;47.664;9.166;2023-07-13T04:24:01;101666.34;;;18.80;98.49
18755;BME280;35061;47.664;9.166;2023-07-13T04:26:30;101670.52;;;18.74;98.38
18755;BME280;35061;47.664;9.166;2023-07-13T04:28:58;101673.20;;;18.72;98.24
18755;BME280;35061;47.664;9.166;2023-07-13T04:31:26;101673.20;;;18.66;98.24
18755;BME280;35061;47.664;9.166;2023-07-13T04:33:54;101684.29;;;18.62;98.63
18755;BME280;35061;47.664;9.166;2023-07-13T04:36:22;101691.16;;;18.59;98.26
18755;BME280;35061;47.664;9.166;2023-07-13T04:38:50;101684.81;;;18.54;98.24
18755;BME280;35061;47.664;9.166;2023-07-13T04:41:18;101700.15;;;18.49;98.57
18755;BME280;35061;47.664;9.166;2023-07-13T04:43:47;101694.04;;;18.53;98.80
18755;BME280;35061;47.664;9.166;2023-07-13T04:46:17;101706.20;;;18.57;99.04
18755;BME280;35061;47.664;9.166;2023-07-13T04:48:46;101698.55;;;18.60;99.11
18755;BME280;35061;47.664;9.166;2023-07-13T04:51:14;101711.99;;;18.63;99.18
18755;BME280;35061;47.664;9.166;2023-07-13T04:53:42;101714.87;;;18.63;99.13
18755;BME280;35061;47.664;9.166;2023-07-13T04:56:11;101702.77;;;18.64;99.02
18755;BME280;35061;47.664;9.166;2023-07-13T04:58:39;101710.65;;;18.64;98.72
18755;BME280;35061;47.664;9.166;2023-07-13T05:01:09;101703.03;;;18.61;98.75
18755;BME280;35061;47.664;9.166;2023-07-13T05:03:38;101709.34;;;18.65;99.05
18755;BME280;35061;47.664;9.166;2023-07-13T05:06:07;101712.74;;;18.69;98.49
18755;BME280;35061;47.664;9.166;2023-07-13T05:08:37;101714.31;;;18.81;97.94
18755;BME280;35061;47.664;9.166;2023-07-13T05:11:06;101716.66;;;18.83;98.28
18755;BME280;35061;47.664;9.166;2023-07-13T05:13:37;101719.28;;;18.92;97.77
18755;BME280;35061;47.664;9.166;2023-07-13T05:16:06;101714.28;;;18.93;96.91
18755;BME280;35061;47.664;9.166;2023-07-13T05:18:36;101705.35;;;18.91;96.83
18755;BME280;35061;47.664;9.166;2023-07-13T05:21:09;101720.36;;;18.89;96.45
18755;BME280;35061;47.664;9.166;2023-07-13T05:23:39;101729.35;;;18.86;96.70
18755;BME280;35061;47.664;9.166;2023-07-13T05:26:12;101733.31;;;18.82;96.73
18755;BME280;35061;47.664;9.166;2023-07-13T05:28:43;101739.09;;;18.82;96.42
18755;BME280;35061;47.664;9.166;2023-07-13T05:31:11;101739.88;;;18.83;96.47
18755;BME280;35061;47.664;9.166;2023-07-13T05:33:41;101743.88;;;18.80;96.34
18755;BME280;35061;47.664;9.166;2023-07-13T05:36:09;101739.88;;;18.77;96.39
18755;BME280;35061;47.664;9.166;2023-07-13T05:38:40;101745.70;;;18.77;96.30
18755;BME280;35061;47.664;9.166;2023-07-13T05:41:11;101739.88;;;18.77;96.26
18755;BME280;35061;47.664;9.166;2023-07-13T05:43:42;101741.74;;;18.80;96.50
18755;BME280;35061;47.664;9.166;2023-07-13T05:46:10;101739.13;;;18.77;96.13
18755;BME280;35061;47.664;9.166;2023-07-13T05:48:38;101741.22;;;18.76;96.13
18755;BME280;35061;47.664;9.166;2023-07-13T05:51:06;101747.83;;;18.77;96.28
18755;BME280;35061;47.664;9.166;2023-07-13T05:53:34;101746.23;;;18.81;96.06
18755;BME280;35061;47.664;9.166;2023-07-13T05:56:04;101749.66;;;18.80;96.08
18755;BME280;35061;47.664;9.166;2023-07-13T05:58:32;101750.70;;;18.82;96.07
18755;BME280;35061;47.664;9.166;2023-07-13T06:01:05;101743.58;;;18.95;96.03
18755;BME280;35061;47.664;9.166;2023-07-13T06:03:34;101753.32;;;18.97;95.92
18755;BME280;35061;47.664;9.166;2023-07-13T06:06:02;101768.10;;;19.00;95.95
18755;BME280;35061;47.664;9.166;2023-07-13T06:08:30;101768.37;;;19.02;95.96
18755;BME280;35061;47.664;9.166;2023-07-13T06:11:03;101764.15;;;19.03;96.24
18755;BME280;35061;47.664;9.166;2023-07-13T06:13:32;101763.62;;;19.04;96.70
18755;BME280;35061;47.664;9.166;2023-07-13T06:16:02;101773.92;;;19.05;97.06
18755;BME280;35061;47.664;9.166;2023-07-13T06:18:33;101769.45;;;19.04;97.32
18755;BME280;35061;47.664;9.166;2023-07-13T06:21:06;101774.97;;;19.02;97.14
18755;BME280;35061;47.664;9.166;2023-07-13T06:23:35;101777.59;;;18.94;96.63
18755;BME280;35061;47.664;9.166;2023-07-13T06:26:04;101789.48;;;18.91;96.81
18755;BME280;35061;47.664;9.166;2023-07-13T06:28:33;101793.41;;;18.88;96.88
18755;BME280;35061;47.664;9.166;2023-07-13T06:31:01;101798.45;;;18.81;96.87
18755;BME280;35061;47.664;9.166;2023-07-13T06:33:29;101816.40;;;18.74;97.40
18755;BME280;35061;47.664;9.166;2023-07-13T06:35:57;101819.57;;;18.65;97.98
18755;BME280;35061;47.664;9.166;2023-07-13T06:38:25;101815.84;;;18.53;98.82
18755;BME280;35061;47.664;9.166;2023-07-13T06:40:53;101816.66;;;18.42;99.37
18755;BME280;35061;47.664;9.166;2023-07-13T06:43:21;101816.40;;;18.34;99.90
18755;BME280;35061;47.664;9.166;2023-07-13T06:45:49;101822.94;;;18.23;99.17
18755;BME280;35061;47.664;9.166;2023-07-13T06:48:19;101827.39;;;18.07;97.58
18755;BME280;35061;47.664;9.166;2023-07-13T06:50:49;101833.14;;;17.96;98.18
18755;BME280;35061;47.664;9.166;2023-07-13T06:53:18;101829.94;;;17.82;98.70
18755;BME280;35061;47.664;9.166;2023-07-13T06:55:47;101836.77;;;17.79;99.47
18755;BME280;35061;47.664;9.166;2023-07-13T06:58:17;101838.34;;;17.75;100.00
18755;BME280;35061;47.664;9.166;2023-07-13T07:00:46;101841.74;;;17.73;100.00
18755;BME280;35061;47.664;9.166;2023-07-13T07:03:14;101847.01;;;17.69;100.00
18755;BME280;35061;47.664;9.166;2023-07-13T07:05:42;101845.38;;;17.62;100.00
18755;BME280;35061;47.664;9.166;2023-07-13T07:08:10;101859.27;;;17.52;100.00
18755;BME280;35061;47.664;9.166;2023-07-13T07:10:38;101859.99;;;17.41;99.60
18755;BME280;35061;47.664;9.166;2023-07-13T07:13:06;101861.79;;;17.27;97.73
18755;BME280;35061;47.664;9.166;2023-07-13T07:15:35;101866.43;;;17.13;98.73
18755;BME280;35061;47.664;9.166;2023-07-13T07:18:03;101869.77;;;17.06;100.00
18755;BME280;35061;47.664;9.166;2023-07-13T07:20:31;101868.63;;;16.98;100.00
18755;BME280;35061;47.664;9.166;2023-07-13T07:23:00;101865.91;;;16.88;100.00
18755;BME280;35061;47.664;9.166;2023-07-13T07:25:28;101862.70;;;16.81;100.00
18755;BME280;35061;47.664;9.166;2023-07-13T07:27:59;101874.05;;;16.84;100.00
18755;BME280;35061;47.664;9.166;2023-07-13T07:30:30;101874.54;;;16.83;100.00
18755;BME280;35061;47.664;9.166;2023-07-13T07:33:01;101860.38;;;16.85;100.00
18755;BME280;35061;47.664;9.166;2023-07-13T07:35:31;101860.38;;;16.85;100.00
18755;BME280;35061;47.664;9.166;2023-07-13T07:38:06;101861.98;;;16.86;100.00
18755;BME280;35061;47.664;9.166;2023-07-13T07:40:40;101854.59;;;16.85;100.00
18755;BME280;35061;47.664;9.166;2023-07-13T07:43:12;101863.55;;;16.87;100.00
18755;BME280;35061;47.664;9.166;2023-07-13T07:45:40;101869.84;;;16.85;100.00
18755;BME280;35061;47.664;9.166;2023-07-13T07:48:08;101874.87;;;16.85;100.00
18755;BME280;35061;47.664;9.166;2023-07-13T07:50:37;101872.22;;;16.87;100.00
18755;BME280;35061;47.664;9.166;2023-07-13T07:53:07;101863.88;;;16.95;100.00
18755;BME280;35061;47.664;9.166;2023-07-13T07:55:35;101870.55;;;17.01;100.00
18755;BME280;35061;47.664;9.166;2023-07-13T07:58:07;101873.23;;;17.10;100.00
18755;BME280;35061;47.664;9.166;2023-07-13T08:01:04;101872.48;;;17.15;100.00
18755;BME280;35061;47.664;9.166;2023-07-13T08:03:36;101872.97;;;17.14;100.00
18755;BME280;35061;47.664;9.166;2023-07-13T08:06:07;101874.28;;;17.13;100.00
18755;BME280;35061;47.664;9.166;2023-07-13T08:08:38;101873.30;;;17.16;100.00
18755;BME280;35061;47.664;9.166;2023-07-13T08:11:07;101872.48;;;17.15;100.00
18755;BME280;35061;47.664;9.166;2023-07-13T08:13:39;101871.44;;;17.19;100.00
18755;BME280;35061;47.664;9.166;2023-07-13T08:16:07;101882.75;;;17.16;100.00
18755;BME280;35061;47.664;9.166;2023-07-13T08:18:35;101884.32;;;17.18;100.00
18755;BME280;35061;47.664;9.166;2023-07-13T08:21:07;101886.22;;;17.21;100.00
18755;BME280;35061;47.664;9.166;2023-07-13T08:23:36;101885.17;;;17.24;100.00
18755;BME280;35061;47.664;9.166;2023-07-13T08:26:04;101880.20;;;17.30;100.00
18755;BME280;35061;47.664;9.166;2023-07-13T08:28:33;101873.92;;;17.37;100.00
18755;BME280;35061;47.664;9.166;2023-07-13T08:31:02;101886.34;;;17.43;99.54
18755;BME280;35061;47.664;9.166;2023-07-13T08:33:31;101874.84;;;17.55;99.29
18755;BME280;35061;47.664;9.166;2023-07-13T08:35:59;101875.36;;;17.59;95.27
18755;BME280;35061;47.664;9.166;2023-07-13T08:38:27;101873.07;;;17.69;95.99
18755;BME280;35061;47.664;9.166;2023-07-13T08:40:56;101877.59;;;17.81;95.70
18755;BME280;35061;47.664;9.166;2023-07-13T08:43:35;101880.30;;;17.96;95.58
18755;BME280;35061;47.664;9.166;2023-07-13T08:48:46;101874.61;;;18.19;92.71
18755;BME280;35061;47.664;9.166;2023-07-13T08:54:16;101872.80;;;18.39;92.86
18755;BME280;35061;47.664;9.166;2023-07-13T08:56:46;101865.45;;;18.49;93.29
18755;BME280;35061;47.664;9.166;2023-07-13T08:59:18;101868.36;;;18.61;92.37
18755;BME280;35061;47.664;9.166;2023-07-13T09:04:45;101865.19;;;18.76;89.35
18755;BME280;35061;47.664;9.166;2023-07-13T09:07:45;101862.54;;;18.83;88.69
18755;BME280;35061;47.664;9.166;2023-07-13T09:10:48;101850.41;;;18.91;82.84
18755;BME280;35061;47.664;9.166;2023-07-13T09:13:22;101854.37;;;19.05;79.12
18755;BME280;35061;47.664;9.166;2023-07-13T09:15:53;101854.66;;;19.13;77.79
18755;BME280;35061;47.664;9.166;2023-07-13T09:18:42;101872.58;;;19.17;73.06
18755;BME280;35061;47.664;9.166;2023-07-13T09:27:20;101871.47;;;19.43;73.82
18755;BME280;35061;47.664;9.166;2023-07-13T09:29:57;101862.21;;;19.44;69.91
18755;BME280;35061;47.664;9.166;2023-07-13T09:32:29;101858.23;;;19.53;73.52
18755;BME280;35061;47.664;9.166;2023-07-13T09:34:57;101858.71;;;19.69;73.98
18755;BME280;35061;47.664;9.166;2023-07-13T09:37:29;101862.38;;;19.75;74.23
18755;BME280;35061;47.664;9.166;2023-07-13T09:39:59;101865.77;;;19.85;74.72
18755;BME280;35061;47.664;9.166;2023-07-13T09:42:29;101864.44;;;19.97;75.01
18755;BME280;35061;47.664;9.166;2023-07-13T09:45:00;101862.80;;;20.07;74.69
18755;BME280;35061;47.664;9.166;2023-07-13T09:47:32;101852.96;;;20.16;73.99
18755;BME280;35061;47.664;9.166;2023-07-13T09:50:03;101862.41;;;20.28;74.48
18755;BME280;35061;47.664;9.166;2023-07-13T09:52:42;101866.34;;;20.36;74.22
18755;BME280;35061;47.664;9.166;2023-07-13T09:55:39;101868.16;;;20.40;73.29
18755;BME280;35061;47.664;9.166;2023-07-13T09:58:14;101865.22;;;20.45;72.73
18755;BME280;35061;47.664;9.166;2023-07-13T10:00:54;101867.34;;;20.45;71.57
18755;BME280;35061;47.664;9.166;2023-07-13T10:03:26;101872.09;;;20.48;70.59
18755;BME280;35061;47.664;9.166;2023-07-13T10:06:09;101876.57;;;20.49;70.44
18755;BME280;35061;47.664;9.166;2023-07-13T10:08:38;101881.90;;;20.45;69.50
18755;BME280;35061;47.664;9.166;2023-07-13T10:11:21;101875.55;;;20.41;69.80
18755;BME280;35061;47.664;9.166;2023-07-13T10:13:57;101876.93;;;20.34;68.09
18755;BME280;35061;47.664;9.166;2023-07-13T10:16:30;101877.71;;;20.34;68.74
18755;BME280;35061;47.664;9.166;2023-07-13T10:19:05;101876.93;;;20.34;69.49
18755;BME280;35061;47.664;9.166;2023-07-13T10:24:29;101871.83;;;20.46;70.46
18755;BME280;35061;47.664;9.166;2023-07-13T10:27:04;101883.44;;;20.52;70.45
18755;BME280;35061;47.664;9.166;2023-07-13T10:29:37;101880.76;;;20.54;69.63
18755;BME280;35061;47.664;9.166;2023-07-13T10:32:10;101875.20;;;20.56;68.27
18755;BME280;35061;47.664;9.166;2023-07-13T10:34:43;101876.24;;;20.58;67.27
18755;BME280;35061;47.664;9.166;2023-07-13T10:40:24;101874.05;;;20.64;65.39
18755;BME280;35061;47.664;9.166;2023-07-13T10:42:56;101867.51;;;20.58;65.14
18755;BME280;35061;47.664;9.166;2023-07-13T10:45:29;101868.33;;;20.53;64.95
18755;BME280;35061;47.664;9.166;2023-07-13T10:47:58;101869.11;;;20.54;65.28
18755;BME280;35061;47.664;9.166;2023-07-13T10:50:29;101863.78;;;20.58;65.98
18755;BME280;35061;47.664;9.166;2023-07-13T10:53:20;101870.13;;;20.62;66.38
18755;BME280;35061;47.664;9.166;2023-07-13T10:58:23;101878.95;;;20.87;67.65
18755;BME280;35061;47.664;9.166;2023-07-13T11:03:22;101871.11;;;21.07;67.60
18755;BME280;35061;47.664;9.166;2023-07-13T11:06:04;101864.37;;;21.17;68.11
18755;BME280;35061;47.664;9.166;2023-07-13T11:08:51;101867.22;;;21.23;67.90
18755;BME280;35061;47.664;9.166;2023-07-13T11:19:24;101884.84;;;21.37;66.16
18755;BME280;35061;47.664;9.166;2023-07-13T11:24:59;101866.40;;;21.28;64.97
18755;BME280;35061;47.664;9.166;2023-07-13T11:32:44;101885.85;;;21.39;65.02
18755;BME280;35061;47.664;9.166;2023-07-13T11:35:21;101876.27;;;21.44;65.73
18755;BME280;35061;47.664;9.166;2023-07-13T11:37:51;101867.84;;;21.41;65.22
18755;BME280;35061;47.664;9.166;2023-07-13T11:40:22;101872.02;;;21.45;65.70
18755;BME280;35061;47.664;9.166;2023-07-13T11:42:59;101864.50;;;21.56;66.23
18755;BME280;35061;47.664;9.166;2023-07-13T11:45:28;101863.06;;;21.68;66.48
18755;BME280;35061;47.664;9.166;2023-07-13T11:48:22;101864.08;;;21.71;66.46
18755;BME280;35061;47.664;9.166;2023-07-13T11:50:57;101857.30;;;21.82;66.54
18755;BME280;35061;47.664;9.166;2023-07-13T11:53:29;101852.77;;;21.86;66.52
18755;BME280;35061;47.664;9.166;2023-07-13T11:55:57;101850.41;;;21.85;66.34
18755;BME280;35061;47.664;9.166;2023-07-13T11:58:26;101853.77;;;21.89;66.42
18755;BME280;35061;47.664;9.166;2023-07-13T12:00:58;101850.12;;;21.88;66.37
18755;BME280;35061;47.664;9.166;2023-07-13T12:03:28;101838.18;;;21.86;65.79
18755;BME280;35061;47.664;9.166;2023-07-13T12:06:00;101833.14;;;21.87;66.30
18755;BME280;35061;47.664;9.166;2023-07-13T12:08:29;101828.73;;;21.80;65.68
18755;BME280;35061;47.664;9.166;2023-07-13T12:11:00;101827.78;;;21.72;65.49
18755;BME280;35061;47.664;9.166;2023-07-13T12:13:37;101835.23;;;21.67;65.69
18755;BME280;35061;47.664;9.166;2023-07-13T12:16:15;101827.45;;;21.75;66.14
18755;BME280;35061;47.664;9.166;2023-07-13T12:18:44;101831.34;;;21.84;66.75
18755;BME280;35061;47.664;9.166;2023-07-13T12:21:17;101824.87;;;21.91;66.43
18755;BME280;35061;47.664;9.166;2023-07-13T12:23:48;101831.12;;;22.01;66.35
18755;BME280;35061;47.664;9.166;2023-07-13T12:26:17;101832.69;;;22.02;66.59
18755;BME280;35061;47.664;9.166;2023-07-13T12:28:52;101832.09;;;22.03;66.93
18755;BME280;35061;47.664;9.166;2023-07-13T12:34:10;101837.00;;;22.14;66.86
18755;BME280;35061;47.664;9.166;2023-07-13T12:36:54;101831.90;;;22.21;66.37
18755;BME280;35061;47.664;9.166;2023-07-13T12:39:26;101828.01;;;22.31;66.76
18755;BME280;35061;47.664;9.166;2023-07-13T12:42:23;101829.35;;;22.30;66.25
18755;BME280;35061;47.664;9.166;2023-07-13T12:44:58;101817.45;;;22.28;65.87
18755;BME280;35061;47.664;9.166;2023-07-13T12:47:28;101817.12;;;22.32;65.25
18755;BME280;35061;47.664;9.166;2023-07-13T12:49:58;101815.23;;;22.35;65.37
18755;BME280;35061;47.664;9.166;2023-07-13T12:52:32;101811.53;;;22.34;65.23
18755;BME280;35061;47.664;9.166;2023-07-13T12:55:10;101818.92;;;22.35;65.08
18755;BME280;35061;47.664;9.166;2023-07-13T12:57:50;101815.38;;;22.42;65.22
18755;BME280;35061;47.664;9.166;2023-07-13T13:00:26;101811.56;;;22.48;65.52
18755;BME280;35061;47.664;9.166;2023-07-13T13:02:57;101805.22;;;22.49;65.45
18755;BME280;35061;47.664;9.166;2023-07-13T13:05:29;101812.38;;;22.48;65.59
18755;BME280;35061;47.664;9.166;2023-07-13T13:07:57;101815.29;;;22.48;65.37
18755;BME280;35061;47.664;9.166;2023-07-13T13:10:25;101817.12;;;22.51;65.17
18755;BME280;35061;47.664;9.166;2023-07-13T13:12:54;101827.23;;;22.50;64.72
18755;BME280;35061;47.664;9.166;2023-07-13T13:15:22;101820.32;;;22.48;64.37
18755;BME280;35061;47.664;9.166;2023-07-13T13:17:51;101813.06;;;22.54;64.81
18755;BME280;35061;47.664;9.166;2023-07-13T13:20:21;101814.11;;;22.57;64.99
18755;BME280;35061;47.664;9.166;2023-07-13T13:22:49;101809.30;;;22.60;65.04
18755;BME280;35061;47.664;9.166;2023-07-13T13:25:17;101808.16;;;22.63;65.32
18755;BME280;35061;47.664;9.166;2023-07-13T13:27:46;101804.23;;;22.60;65.40
18755;BME280;35061;47.664;9.166;2023-07-13T13:30:16;101799.73;;;22.59;64.93
18755;BME280;35061;47.664;9.166;2023-07-13T13:32:46;101803.35;;;22.65;64.83
18755;BME280;35061;47.664;9.166;2023-07-13T13:35:16;101795.05;;;22.69;64.81
18755;BME280;35061;47.664;9.166;2023-07-13T13:37:46;101789.33;;;22.77;64.85
18755;BME280;35061;47.664;9.166;2023-07-13T13:40:21;101794.30;;;22.82;64.67
18755;BME280;35061;47.664;9.166;2023-07-13T13:42:50;101791.05;;;22.86;64.41
18755;BME280;35061;47.664;9.166;2023-07-13T13:45:20;101796.32;;;22.87;64.20
18755;BME280;35061;47.664;9.166;2023-07-13T13:47:48;101791.05;;;22.86;64.12
18755;BME280;35061;47.664;9.166;2023-07-13T13:50:20;101782.52;;;22.88;64.09
18755;BME280;35061;47.664;9.166;2023-07-13T13:52:50;101778.24;;;22.89;64.01